Time;durP1;ratioP1;P1;durP2;ratioP2;P2;SDS_P1;SDS_P2;PMS_P1;PMS_P2;Temp;Humidity;BMP_temperature;BMP_pressure;BME280_temperature;BME280_humidity;BME280_pressure;Samples;Min_cycle;Max_cycle;Signal;HPM_P1;HPM_P2
2022/11/11 09:49:00;;;;;;;16.80;10.10;;;;;;;9.73;83.95;101624.46;100543;1342;561819;-79
2022/11/11 09:52:14;;;;;;;16.40;9.20;;;;;;;9.76;83.67;101628.38;103405;1311;22617;-85
2022/11/11 09:55:14;;;;;;;17.00;10.10;;;;;;;9.88;83.78;101623.81;103366;1310;24286;-79
2022/11/11 09:58:05;;;;;;;12.80;8.80;;;;;;;10.01;83.47;101616.06;103008;1314;25389;-82
2022/11/11 10:00:58;;;;;;;15.70;9.40;;;;;;;10.11;83.13;101613.20;102676;1314;198532;-81
2022/11/11 10:03:48;;;;;;;14.30;8.50;;;;;;;10.21;83.06;101615.41;103033;1314;25189;-78
2022/11/11 10:06:35;;;;;;;13.40;7.90;;;;;;;10.26;82.76;101601.40;103195;1313;25629;-77
2022/11/11 10:09:44;;;;;;;14.30;8.50;;;;;;;10.31;82.52;101602.69;103826;1314;22565;-80
2022/11/11 10:12:37;;;;;;;14.40;8.80;;;;;;;10.39;82.27;101600.48;104771;1315;22581;-78
2022/11/11 10:15:47;;;;;;;13.00;8.70;;;;;;;10.45;82.10;101602.30;104655;1310;22739;-80
2022/11/11 10:18:49;;;;;;;16.60;9.30;;;;;;;10.49;81.82;101603.63;105690;1309;22100;-78
2022/11/11 10:21:59;;;;;;;14.90;9.20;;;;;;;10.46;81.19;101598.45;106098;1310;22416;-78
2022/11/11 10:25:12;;;;;;;13.70;8.70;;;;;;;10.45;80.96;101589.80;105450;1310;22417;-79
2022/11/11 10:28:01;;;;;;;14.30;10.00;;;;;;;10.45;80.95;101591.56;103776;1310;25208;-79
2022/11/11 10:30:51;;;;;;;15.30;8.60;;;;;;;10.46;81.12;101577.67;103031;1315;25379;-80
2022/11/11 10:33:38;;;;;;;13.70;9.00;;;;;;;10.51;80.70;101574.76;103038;1313;25222;-79
2022/11/11 10:36:26;;;;;;;12.80;9.80;;;;;;;10.53;80.91;101590.45;102468;1319;25319;-78
2022/11/11 10:39:22;;;;;;;17.60;9.70;;;;;;;10.59;80.50;101588.23;103030;1313;24341;-80
2022/11/11 10:42:16;;;;;;;11.70;8.10;;;;;;;10.62;80.72;101584.38;102023;1321;22625;-83
2022/11/11 10:45:07;;;;;;;16.30;9.10;;;;;;;10.65;79.38;101588.10;102377;1321;24302;-84
2022/11/11 10:48:08;;;;;;;15.40;9.30;;;;;;;10.62;79.80;101595.30;102373;1315;24410;-81
2022/11/11 10:50:58;;;;;;;17.20;10.10;;;;;;;10.62;79.38;101596.70;102981;1315;24278;-80
2022/11/11 10:53:53;;;;;;;15.70;8.70;;;;;;;10.67;79.83;101595.18;102895;1313;24365;-79
2022/11/11 10:56:44;;;;;;;16.90;8.80;;;;;;;10.72;79.36;101593.46;103047;1312;25892;-81
2022/11/11 10:59:30;;;;;;;14.70;8.90;;;;;;;10.74;79.36;101585.19;103299;1307;24234;-80
2022/11/11 11:02:26;;;;;;;8.70;7.50;;;;;;;10.76;79.12;101584.52;103786;1307;22587;-80
2022/11/11 11:05:39;;;;;;;12.10;8.50;;;;;;;10.70;78.42;101577.59;103600;1307;23221;-81
2022/11/11 11:08:33;;;;;;;13.70;8.60;;;;;;;10.68;78.93;101574.58;103656;1306;25571;-78
2022/11/11 11:11:30;;;;;;;14.10;9.20;;;;;;;10.74;79.29;101568.80;103612;1307;22582;-81
2022/11/11 11:14:27;;;;;;;14.40;9.20;;;;;;;10.80;79.06;101566.41;103633;1307;24346;-82
2022/11/11 11:17:29;;;;;;;12.90;8.60;;;;;;;10.80;78.61;101565.52;103693;1307;22511;-80
2022/11/11 11:20:21;;;;;;;14.90;9.30;;;;;;;10.77;78.66;101567.95;103782;1307;22606;-77
2022/11/11 11:23:05;;;;;;;13.00;8.70;;;;;;;10.80;78.67;101564.27;103535;1307;23856;-78
2022/11/11 11:25:56;;;;;;;13.80;8.80;;;;;;;10.84;78.78;101561.32;103165;1311;23175;-81
2022/11/11 11:29:00;;;;;;;11.10;7.80;;;;;;;10.85;78.66;101554.10;103098;1310;24432;-79
2022/11/11 11:31:46;;;;;;;19.50;8.60;;;;;;;10.84;78.39;101543.34;103267;1310;22490;-80
2022/11/11 11:34:46;;;;;;;13.80;8.30;;;;;;;10.83;78.33;101538.40;103166;1310;23293;-79
2022/11/11 11:37:31;;;;;;;14.70;7.80;;;;;;;10.85;78.42;101540.70;103179;1311;22949;-79
2022/11/11 11:40:16;;;;;;;13.20;8.40;;;;;;;10.82;77.95;101545.97;102992;1310;22475;-79
2022/11/11 11:43:01;;;;;;;12.70;7.70;;;;;;;10.80;78.22;101550.19;102779;1300;24388;-79
2022/11/11 11:45:55;;;;;;;12.40;8.40;;;;;;;10.81;78.13;101549.84;103382;1310;24482;-79
2022/11/11 11:49:15;;;;;;;14.20;8.30;;;;;;;10.84;78.35;101554.09;103348;1310;22464;-81
2022/11/11 11:52:09;;;;;;;12.80;8.00;;;;;;;10.89;78.15;101555.03;103234;1302;22481;-84
2022/11/11 11:55:31;;;;;;;16.10;8.20;;;;;;;10.89;78.14;101564.36;103210;1310;24447;-82
2022/11/11 11:58:27;;;;;;;14.30;7.80;;;;;;;10.99;78.31;101565.32;103111;1310;25198;-81
2022/11/11 12:01:41;;;;;;;13.50;7.60;;;;;;;11.07;77.71;101555.52;103344;1307;23914;-79
2022/11/11 12:05:00;;;;;;;12.40;8.00;;;;;;;11.09;77.51;101541.94;103933;1307;24272;-79
2022/11/11 12:07:51;;;;;;;13.20;7.60;;;;;;;11.14;77.75;101535.47;103590;1307;25132;-79
2022/11/11 12:10:42;;;;;;;10.70;6.80;;;;;;;11.10;77.22;101540.38;103644;1307;22593;-80
2022/11/11 12:13:37;;;;;;;16.00;7.30;;;;;;;11.09;77.03;101543.54;103313;1310;22476;-83
2022/11/11 12:16:46;;;;;;;11.70;7.10;;;;;;;11.04;76.85;101548.09;103190;1288;22518;-80
2022/11/11 12:19:58;;;;;;;12.20;6.30;;;;;;;11.02;77.17;101556.36;102865;1315;24242;-82
2022/11/11 12:22:57;;;;;;;12.40;6.20;;;;;;;11.07;77.21;101554.27;104306;1303;22729;-79
2022/11/11 12:26:00;;;;;;;12.30;6.80;;;;;;;11.10;77.23;101560.83;102128;1321;22484;-75
2022/11/11 12:29:01;;;;;;;16.50;7.40;;;;;;;11.13;76.75;101564.38;102128;1321;22685;-76
2022/11/11 12:32:21;;;;;;;10.10;6.10;;;;;;;11.17;76.85;101556.30;102417;1317;22484;-76
2022/11/11 12:35:33;;;;;;;11.90;6.00;;;;;;;11.22;76.86;101558.27;102669;1317;25204;-76
2022/11/11 12:38:21;;;;;;;11.90;5.90;;;;;;;11.28;76.70;101563.06;103109;1309;24262;-77
2022/11/11 12:41:15;;;;;;;12.00;5.80;;;;;;;11.33;76.15;101559.05;103302;1307;22522;-76
2022/11/11 12:44:09;;;;;;;13.70;5.90;;;;;;;11.30;75.74;101563.96;103428;1304;23930;-77
2022/11/11 12:47:26;;;;;;;9.30;5.40;;;;;;;11.20;75.60;101578.00;103769;1304;22590;-77
2022/11/11 12:50:29;;;;;;;10.10;5.10;;;;;;;11.17;76.18;101583.45;103827;1304;22451;-77
2022/11/11 12:53:45;;;;;;;8.80;5.40;;;;;;;11.16;75.94;101579.73;103626;1304;24422;-76
2022/11/11 12:56:47;;;;;;;11.60;6.00;;;;;;;11.07;75.49;101578.25;103775;1304;24358;-77
2022/11/11 12:59:35;;;;;;;12.10;6.50;;;;;;;11.00;75.63;101560.39;103749;1304;23945;-84
2022/11/11 13:03:09;;;;;;;10.30;5.30;;;;;;;10.94;75.69;101548.71;103711;1303;22744;-78
2022/11/11 13:06:09;;;;;;;11.10;5.80;;;;;;;10.86;75.70;101549.00;102663;1318;22544;-78
2022/11/11 13:09:21;;;;;;;11.20;5.60;;;;;;;10.85;76.31;101546.34;102680;1303;24411;-79
2022/11/11 13:12:12;;;;;;;9.60;6.10;;;;;;;10.85;75.82;101546.88;102661;1318;22593;-78
2022/11/11 13:15:13;;;;;;;11.80;5.70;;;;;;;10.80;76.06;101543.84;102794;1317;22960;-80
2022/11/11 13:18:00;;;;;;;9.00;5.50;;;;;;;10.83;76.35;101544.92;103310;1317;24045;-77
2022/11/11 13:20:54;;;;;;;11.20;6.20;;;;;;;10.87;76.31;101535.08;104284;1324;23838;-80
2022/11/11 13:23:39;;;;;;;8.70;5.70;;;;;;;10.93;76.34;101536.73;104363;1318;22844;-80
2022/11/11 13:26:32;;;;;;;10.10;5.80;;;;;;;10.91;75.79;101541.98;103795;1318;22443;-82
2022/11/11 13:29:48;;;;;;;9.20;5.40;;;;;;;10.83;75.78;101535.23;104968;1318;22517;-82
2022/11/11 13:32:37;;;;;;;10.50;5.90;;;;;;;10.80;76.07;101533.97;104449;1317;22418;-80
2022/11/11 13:35:41;;;;;;;11.00;6.00;;;;;;;10.75;76.02;101532.88;103771;1318;22488;-81
2022/11/11 13:38:34;;;;;;;10.00;6.00;;;;;;;10.72;76.27;101535.49;104239;1304;22509;-81
2022/11/11 13:41:33;;;;;;;8.90;5.80;;;;;;;10.73;76.26;101540.25;104756;1281;22540;-78
2022/11/11 13:44:30;;;;;;;11.20;6.30;;;;;;;10.72;76.30;101539.02;105379;1304;24333;-82
2022/11/11 13:47:26;;;;;;;12.30;6.50;;;;;;;10.71;76.34;101544.66;106137;1304;25877;-81
2022/11/11 13:50:26;;;;;;;12.00;6.10;;;;;;;10.73;76.34;101546.43;105807;1298;22456;-80
2022/11/11 13:53:35;;;;;;;11.70;4.90;;;;;;;10.71;76.39;101545.35;105273;1304;22448;-80
2022/11/11 13:56:35;;;;;;;9.60;6.10;;;;;;;10.71;76.46;101546.75;104146;1304;25278;-83
2022/11/11 13:59:30;;;;;;;10.00;6.40;;;;;;;10.70;76.36;101552.92;104331;1304;22462;-81
2022/11/11 14:02:18;;;;;;;13.10;6.90;;;;;;;10.68;76.52;101550.79;104383;1304;23892;-84
2022/11/11 14:05:04;;;;;;;11.90;6.80;;;;;;;10.68;76.54;101549.55;104677;1304;22594;-80
2022/11/11 14:07:56;;;;;;;10.00;6.70;;;;;;;10.65;76.36;101547.77;104409;1304;25237;-82
2022/11/11 14:10:51;;;;;;;14.00;7.60;;;;;;;10.61;76.23;101547.90;105394;1304;22465;-80
2022/11/11 14:13:38;;;;;;;13.90;7.50;;;;;;;10.56;76.10;101551.02;104610;1304;22598;-82
2022/11/11 14:16:36;;;;;;;9.10;5.80;;;;;;;10.52;76.15;101555.21;105256;1303;22810;-77
2022/11/11 14:19:20;;;;;;;11.10;7.00;;;;;;;10.51;76.15;101559.09;104731;1303;22407;-81
2022/11/11 14:22:29;;;;;;;10.90;6.80;;;;;;;10.51;76.18;101553.28;104483;1304;25357;-81
2022/11/11 14:25:23;;;;;;;10.20;7.10;;;;;;;10.50;76.27;101549.91;104361;1303;22458;-81
2022/11/11 14:28:58;;;;;;;15.40;7.10;;;;;;;10.48;76.02;101550.59;104310;1303;22852;-78
2022/11/11 14:32:00;;;;;;;11.90;7.20;;;;;;;10.48;76.30;101555.53;104166;1304;22421;-82
2022/11/11 14:35:05;;;;;;;10.00;7.60;;;;;;;10.48;76.26;101555.71;104006;1304;23026;-82
2022/11/11 14:38:04;;;;;;;10.50;7.20;;;;;;;10.46;76.26;101556.21;103970;1304;22491;-81
2022/11/11 14:40:49;;;;;;;14.80;7.60;;;;;;;10.45;76.32;101564.45;103342;1309;23947;-84
2022/11/11 14:43:35;;;;;;;13.00;7.40;;;;;;;10.44;76.28;101571.13;103115;1309;24047;-81
2022/11/11 14:46:20;;;;;;;13.00;7.70;;;;;;;10.45;76.49;101572.89;103195;1309;24469;-84
2022/11/11 14:49:07;;;;;;;13.30;7.40;;;;;;;10.46;76.42;101563.45;103405;1310;22718;-84
2022/11/11 14:51:58;;;;;;;13.30;7.80;;;;;;;10.47;76.49;101558.34;103528;1310;22742;-82
2022/11/11 14:55:03;;;;;;;11.10;8.10;;;;;;;10.46;76.39;101558.88;103132;1309;22480;-78
2022/11/11 14:58:00;;;;;;;13.40;8.00;;;;;;;10.41;76.32;101560.35;103221;1305;22483;-78
2022/11/11 15:01:09;;;;;;;11.50;7.90;;;;;;;10.37;76.42;101564.36;103717;1304;24384;-79
2022/11/11 15:03:55;;;;;;;12.80;7.90;;;;;;;10.34;76.53;101557.65;103779;1304;22467;-79
2022/11/11 15:06:50;;;;;;;11.10;7.60;;;;;;;10.27;76.63;101559.16;103241;1308;24928;-80
2022/11/11 15:09:42;;;;;;;15.60;8.30;;;;;;;10.24;76.92;101561.92;103294;1310;25893;-80
2022/11/11 15:13:01;;;;;;;10.10;7.20;;;;;;;10.22;76.90;101571.08;102761;1314;22722;-78
2022/11/11 15:16:05;;;;;;;10.80;8.00;;;;;;;10.17;76.99;101574.88;102159;1314;22487;-79
2022/11/11 15:19:04;;;;;;;13.50;8.50;;;;;;;10.13;77.20;101577.66;102111;1320;26596;-78
2022/11/11 15:22:20;;;;;;;12.60;7.60;;;;;;;10.06;77.31;101575.64;102173;1321;23127;-81
2022/11/11 15:25:18;;;;;;;12.30;7.60;;;;;;;10.03;77.45;101573.83;102611;1317;22486;-79
2022/11/11 15:28:33;;;;;;;10.70;7.10;;;;;;;10.00;77.66;101572.58;102685;1317;22858;-81
2022/11/11 15:31:27;;;;;;;13.70;7.30;;;;;;;9.99;77.73;101573.79;102675;1315;22481;-82
2022/11/11 15:34:19;;;;;;;11.30;7.50;;;;;;;9.94;77.86;101577.60;103344;1309;22889;-88
2022/11/11 15:37:09;;;;;;;12.20;6.90;;;;;;;9.90;78.06;101578.26;103447;1310;22479;-85
2022/11/11 15:39:56;;;;;;;12.10;6.80;;;;;;;9.92;78.21;101579.52;103409;1310;24221;-85
2022/11/11 15:42:48;;;;;;;10.60;7.40;;;;;;;9.95;78.26;101592.05;103523;1302;22589;-84
2022/11/11 15:45:35;;;;;;;12.40;7.60;;;;;;;9.95;78.33;101601.03;103331;1310;22466;-84
2022/11/11 15:48:42;;;;;;;9.80;6.50;;;;;;;9.96;78.35;101605.43;103363;1304;22947;-86
2022/11/11 15:51:30;;;;;;;14.80;7.50;;;;;;;9.96;78.35;101615.45;104015;1304;22464;-85
2022/11/11 15:54:15;;;;;;;13.70;7.80;;;;;;;9.95;78.50;101609.46;105567;1304;22495;-86
2022/11/11 15:57:30;;;;;;;8.80;7.90;;;;;;;9.96;78.60;101605.77;103685;1295;22466;-87
2022/11/11 16:00:23;;;;;;;17.60;7.80;;;;;;;9.97;78.69;101606.33;103455;1297;25615;-86
2022/11/11 16:03:17;;;;;;;8.90;7.10;;;;;;;9.99;78.73;101607.05;104915;1310;23914;-85
2022/11/11 16:06:06;;;;;;;11.70;8.10;;;;;;;10.01;78.65;101610.78;105127;1309;24263;-85
2022/11/11 16:08:55;;;;;;;10.90;7.80;;;;;;;10.05;78.86;101611.52;105638;1310;22491;-84
2022/11/11 16:11:42;;;;;;;11.80;7.80;;;;;;;10.06;78.80;101605.91;105543;1310;25248;-83
2022/11/11 16:14:47;;;;;;;12.20;7.50;;;;;;;10.07;78.76;101615.62;105435;1304;22413;-84
2022/11/11 16:17:38;;;;;;;15.10;7.60;;;;;;;10.08;78.79;101612.98;106072;1304;22412;-86
2022/11/11 16:20:32;;;;;;;12.60;8.60;;;;;;;10.10;78.69;101611.07;106303;1304;22471;-83
2022/11/11 16:23:19;;;;;;;13.10;7.90;;;;;;;10.13;78.90;101606.52;105756;1304;24205;-85
2022/11/11 16:26:06;;;;;;;10.30;7.10;;;;;;;10.17;78.95;101607.09;106115;1304;22163;-85
2022/11/11 16:28:54;;;;;;;12.40;7.20;;;;;;;10.21;78.78;101605.73;106655;1304;22436;-86
2022/11/11 16:31:41;;;;;;;15.20;7.70;;;;;;;10.21;78.73;101609.77;106183;1314;22627;-85
2022/11/11 16:34:29;;;;;;;14.70;8.70;;;;;;;10.19;78.69;101606.77;105841;1309;22428;-82
2022/11/11 16:37:17;;;;;;;14.60;8.20;;;;;;;10.17;78.92;101600.42;105488;1310;22949;-87
2022/11/11 16:40:24;;;;;;;12.80;7.70;;;;;;;10.22;78.92;101592.02;105528;1312;24385;-79
2022/11/11 16:43:25;;;;;;;15.50;9.00;;;;;;;10.22;78.95;101593.60;105633;1312;22322;-83
2022/11/11 16:46:35;;;;;;;15.40;8.80;;;;;;;10.18;78.85;101593.92;105276;1309;22513;-82
2022/11/11 16:49:27;;;;;;;15.10;8.90;;;;;;;10.10;78.97;101588.70;105547;1304;22495;-90
2022/11/11 16:52:23;;;;;;;12.40;7.90;;;;;;;10.09;79.13;101591.34;105249;1304;22445;-86
2022/11/11 16:55:24;;;;;;;14.00;9.10;;;;;;;10.10;79.22;101589.41;105113;1304;22584;-86
2022/11/11 16:58:18;;;;;;;13.20;8.90;;;;;;;10.12;79.31;101594.89;104828;1304;22586;-86
2022/11/11 17:01:03;;;;;;;24.10;8.40;;;;;;;10.10;79.24;101598.05;104188;1304;22616;-83
2022/11/11 17:03:54;;;;;;;12.80;8.50;;;;;;;10.12;79.43;101604.93;104405;1304;25549;-84
2022/11/11 17:06:58;;;;;;;17.00;9.40;;;;;;;10.12;79.24;101603.52;105709;1303;24303;-84
2022/11/11 17:09:44;;;;;;;12.30;8.40;;;;;;;10.11;79.30;101610.73;104902;1304;22536;-85
2022/11/11 17:12:31;;;;;;;14.20;7.80;;;;;;;10.12;79.39;101622.36;104920;1304;22907;-84
2022/11/11 17:15:19;;;;;;;14.10;8.70;;;;;;;10.16;79.34;101628.03;104819;1304;22452;-86
2022/11/11 17:18:07;;;;;;;15.10;9.40;;;;;;;10.16;79.28;101630.67;105077;1304;22412;-83
2022/11/11 17:20:52;;;;;;;14.40;8.70;;;;;;;10.17;79.16;101637.02;105288;1310;22407;-83
2022/11/11 17:23:37;;;;;;;12.60;6.90;;;;;;;10.12;79.16;101633.64;105058;1310;22495;-86
2022/11/11 17:26:25;;;;;;;11.60;8.10;;;;;;;10.12;79.22;101636.63;104842;1314;23914;-85
2022/11/11 17:29:13;;;;;;;14.20;8.30;;;;;;;10.13;79.28;101642.95;104911;1314;23016;-85
2022/11/11 17:31:58;;;;;;;14.50;8.80;;;;;;;10.10;79.29;101632.19;105101;1314;22478;-85
2022/11/11 17:34:43;;;;;;;14.90;7.90;;;;;;;10.11;79.20;101639.59;104515;1315;25370;-83
2022/11/11 17:37:34;;;;;;;16.80;8.70;;;;;;;10.14;79.41;101638.58;104757;1314;22532;-85
2022/11/11 17:40:18;;;;;;;12.90;8.90;;;;;;;10.18;79.36;101639.32;105230;1297;24241;-84
2022/11/11 17:43:04;;;;;;;15.10;8.60;;;;;;;10.20;79.33;101637.77;105794;1304;24388;-83
2022/11/11 17:45:50;;;;;;;12.20;9.10;;;;;;;10.21;79.35;101637.41;105812;1304;24327;-83
2022/11/11 17:48:36;;;;;;;12.60;8.40;;;;;;;10.20;79.26;101634.41;105904;1304;22142;-83
2022/11/11 17:51:23;;;;;;;10.40;8.10;;;;;;;10.21;79.29;101637.41;105781;1304;25534;-83
2022/11/11 17:54:09;;;;;;;10.90;8.10;;;;;;;10.22;79.33;101632.86;105550;1304;22775;-82
2022/11/11 17:56:54;;;;;;;13.80;7.80;;;;;;;10.20;79.20;101635.30;105247;1304;22456;-83
2022/11/11 17:59:39;;;;;;;13.50;8.90;;;;;;;10.18;79.35;101638.27;105102;1304;24986;-83
2022/11/11 18:02:24;;;;;;;11.60;8.10;;;;;;;10.16;79.38;101635.97;105125;1304;25221;-80
2022/11/11 18:05:09;;;;;;;14.90;8.90;;;;;;;10.18;79.54;101639.50;104427;1304;25234;-81
2022/11/11 18:07:57;;;;;;;12.90;8.10;;;;;;;10.19;79.63;101640.39;103828;1310;22660;-80
2022/11/11 18:10:42;;;;;;;15.30;9.00;;;;;;;10.15;79.61;101630.84;103495;1310;23626;-80
2022/11/11 18:13:27;;;;;;;11.50;7.80;;;;;;;10.12;79.91;101625.36;103934;1310;25202;-81
2022/11/11 18:16:15;;;;;;;13.10;8.20;;;;;;;10.09;80.05;101624.43;103525;1310;25923;-80
2022/11/11 18:19:01;;;;;;;16.40;9.40;;;;;;;10.06;80.02;101614.71;103796;1310;22445;-83
2022/11/11 18:21:46;;;;;;;11.10;8.60;;;;;;;10.03;80.34;101612.38;103497;1310;22430;-80
2022/11/11 18:24:31;;;;;;;11.40;7.10;;;;;;;10.01;80.54;101605.13;103650;1310;25351;-80
2022/11/11 18:27:16;;;;;;;11.50;8.30;;;;;;;10.01;80.69;101604.78;104277;1304;22456;-81
2022/11/11 18:30:00;;;;;;;11.70;7.70;;;;;;;9.98;80.68;101613.55;103758;1304;22529;-83
2022/11/11 18:32:47;;;;;;;11.40;8.20;;;;;;;9.98;81.08;101620.06;103875;1287;24311;-82
2022/11/11 18:35:32;;;;;;;11.50;8.80;;;;;;;9.96;81.05;101630.23;103907;1304;22445;-81
2022/11/11 18:38:16;;;;;;;11.80;8.20;;;;;;;9.93;81.32;101627.56;103860;1304;22649;-82
2022/11/11 18:41:13;;;;;;;13.10;8.20;;;;;;;9.94;81.36;101630.20;103920;1304;22447;-81
2022/11/11 18:43:59;;;;;;;16.50;9.10;;;;;;;9.93;81.41;101635.65;103688;1304;22577;-82
2022/11/11 18:46:43;;;;;;;13.30;8.80;;;;;;;9.93;81.51;101631.60;103786;1304;22468;-83
2022/11/11 18:49:28;;;;;;;10.60;7.90;;;;;;;9.94;81.78;101635.33;103746;1304;22473;-81
2022/11/11 18:52:13;;;;;;;12.90;8.30;;;;;;;9.95;81.82;101638.15;103776;1304;25347;-80
2022/11/11 18:54:58;;;;;;;15.60;8.20;;;;;;;9.98;81.83;101641.71;103311;1294;24797;-81
2022/11/11 18:57:42;;;;;;;10.60;8.70;;;;;;;9.98;81.96;101642.06;103190;1310;22486;-82
2022/11/11 19:00:27;;;;;;;14.10;9.10;;;;;;;9.97;82.08;101645.56;103255;1298;24242;-81
2022/11/11 19:03:12;;;;;;;16.80;9.40;;;;;;;9.94;82.28;101645.52;103496;1310;22507;-81
2022/11/11 19:06:03;;;;;;;13.80;8.70;;;;;;;9.90;82.49;101645.13;103053;1315;24505;-81
2022/11/11 19:08:54;;;;;;;11.80;8.10;;;;;;;9.88;82.64;101650.04;102827;1315;22492;-81
2022/11/11 19:11:41;;;;;;;13.40;8.60;;;;;;;9.82;82.81;101655.75;102728;1315;25275;-82
2022/11/11 19:14:26;;;;;;;10.00;8.10;;;;;;;9.77;83.32;101658.14;103505;1310;22851;-82
2022/11/11 19:17:11;;;;;;;12.20;8.20;;;;;;;9.72;83.66;101659.11;103364;1310;22466;-80
2022/11/11 19:19:56;;;;;;;13.90;10.00;;;;;;;9.71;83.82;101660.34;103336;1310;22581;-81
2022/11/11 19:22:41;;;;;;;15.10;8.80;;;;;;;9.70;83.95;101668.59;103351;1310;24380;-78
2022/11/11 19:25:26;;;;;;;17.00;9.10;;;;;;;9.69;84.10;101673.85;105648;1289;24243;-77
2022/11/11 19:28:11;;;;;;;14.20;9.30;;;;;;;9.68;84.37;101679.13;103827;1304;22735;-83
2022/11/11 19:31:01;;;;;;;14.70;9.40;;;;;;;9.67;84.56;101681.73;103711;1304;22461;-76
2022/11/11 19:33:47;;;;;;;16.60;9.40;;;;;;;9.71;84.48;101684.42;103865;1304;22459;-78
2022/11/11 19:36:38;;;;;;;13.10;9.00;;;;;;;9.70;84.57;101688.28;103307;1310;22704;-79
2022/11/11 19:39:23;;;;;;;14.20;9.90;;;;;;;9.72;84.61;101703.27;104357;1296;24458;-82
2022/11/11 19:42:08;;;;;;;11.70;9.00;;;;;;;9.73;84.57;101704.00;105702;1317;22489;-88
2022/11/11 19:44:57;;;;;;;13.40;9.20;;;;;;;9.75;84.55;101704.20;104209;1317;24311;-83
2022/11/11 19:47:43;;;;;;;11.80;8.50;;;;;;;9.77;84.72;101705.64;105522;1318;22591;-81
2022/11/11 19:50:28;;;;;;;14.80;8.90;;;;;;;9.83;84.69;101697.27;105092;1319;22408;-81
2022/11/11 19:53:13;;;;;;;11.80;8.30;;;;;;;9.84;84.48;101697.13;103634;1317;25566;-80
2022/11/11 19:56:07;;;;;;;12.60;8.10;;;;;;;9.82;84.48;101702.73;103936;1312;22507;-83
2022/11/11 19:58:57;;;;;;;;;;;;;;;9.80;84.39;101700.22;103232;1310;25662;-82
2022/11/11 20:01:42;;;;;;;13.70;9.30;;;;;;;9.75;84.55;101697.52;104027;1304;22433;-84
2022/11/11 20:04:29;;;;;;;14.90;9.60;;;;;;;9.75;84.73;101703.32;103870;1304;22949;-85
2022/11/11 20:07:16;;;;;;;13.60;9.90;;;;;;;9.75;84.70;101697.88;103799;1304;24338;-81
2022/11/11 20:10:01;;;;;;;13.90;9.40;;;;;;;9.78;84.59;101688.23;103752;1304;22465;-77
2022/11/11 20:12:50;;;;;;;12.90;8.70;;;;;;;9.78;84.44;101688.23;103217;1309;24384;-79
2022/11/11 20:15:36;;;;;;;14.60;8.80;;;;;;;9.77;84.36;101680.83;103198;1312;22471;-79
2022/11/11 20:18:21;;;;;;;11.40;8.80;;;;;;;9.78;84.61;101676.27;103407;1312;22665;-77
2022/11/11 20:21:08;;;;;;;13.50;9.60;;;;;;;9.74;84.38;101675.34;103789;1309;25331;-82
2022/11/11 20:23:54;;;;;;;10.40;8.60;;;;;;;9.75;84.52;101676.23;103727;1312;22517;-78
2022/11/11 20:26:39;;;;;;;12.10;9.30;;;;;;;9.75;84.43;101685.38;103643;1312;24243;-77
2022/11/11 20:29:24;;;;;;;13.80;8.90;;;;;;;9.80;84.55;101689.31;103817;1312;23162;-79
2022/11/11 20:32:09;;;;;;;15.90;9.70;;;;;;;9.85;84.44;101690.11;104060;1296;23075;-80
2022/11/11 20:34:54;;;;;;;14.10;10.00;;;;;;;9.86;84.33;101696.63;103678;1304;22469;-81
2022/11/11 20:37:39;;;;;;;11.50;9.10;;;;;;;9.89;84.24;101695.45;103845;1304;23818;-79
2022/11/11 20:40:24;;;;;;;11.20;9.50;;;;;;;9.95;84.30;101705.37;103799;1304;24241;-79
2022/11/11 20:43:09;;;;;;;11.40;9.40;;;;;;;9.95;83.87;101704.86;103680;1307;25360;-78
2022/11/11 20:45:54;;;;;;;12.60;10.10;;;;;;;9.97;83.87;101700.82;103639;1304;24237;-79
2022/11/11 20:48:42;;;;;;;14.30;9.40;;;;;;;9.98;83.96;101709.64;104283;1304;22469;-79
2022/11/11 20:51:27;;;;;;;11.50;8.80;;;;;;;9.96;83.77;101710.84;104228;1304;22602;-78
2022/11/11 20:54:13;;;;;;;11.40;8.80;;;;;;;9.93;83.67;101709.91;103829;1304;23893;-80
2022/11/11 20:56:59;;;;;;;13.80;9.80;;;;;;;9.92;83.94;101713.42;104157;1304;23299;-79
2022/11/11 20:59:44;;;;;;;14.50;9.90;;;;;;;9.97;84.02;101717.36;104198;1304;22461;-77
2022/11/11 21:02:28;;;;;;;15.60;9.40;;;;;;;9.99;83.89;101720.03;103929;1304;22566;-79
2022/11/11 21:05:13;;;;;;;14.40;9.50;;;;;;;9.98;83.71;101721.08;104123;1307;22552;-82
2022/11/11 21:07:59;;;;;;;11.00;9.40;;;;;;;9.99;83.96;101718.98;104447;1305;23944;-78
2022/11/11 21:10:43;;;;;;;13.10;10.00;;;;;;;10.03;83.89;101719.04;104168;1310;22472;-81
2022/11/11 21:13:31;;;;;;;12.50;10.00;;;;;;;10.03;83.88;101717.09;104380;1304;22468;-82
2022/11/11 21:16:22;;;;;;;13.00;9.20;;;;;;;10.01;83.54;101719.54;103880;1304;24370;-79
2022/11/11 21:19:07;;;;;;;14.60;10.20;;;;;;;9.98;83.66;101722.14;103704;1293;25665;-78
2022/11/11 21:21:53;;;;;;;12.30;10.00;;;;;;;9.95;83.71;101724.73;103419;1308;26479;-81
2022/11/11 21:24:39;;;;;;;16.10;9.50;;;;;;;9.96;83.84;101719.27;103493;1312;22939;-82
2022/11/11 21:27:25;;;;;;;13.50;9.90;;;;;;;9.94;83.73;101717.52;103446;1312;22756;-81
2022/11/11 21:30:17;;;;;;;13.60;9.50;;;;;;;9.95;83.75;101714.52;102924;1318;25896;-81
2022/11/11 21:33:02;;;;;;;15.00;9.80;;;;;;;9.95;83.74;101714.87;102531;1317;22481;-81
2022/11/11 21:36:01;;;;;;;13.80;10.00;;;;;;;9.96;84.00;101716.65;101785;1324;22713;-79
2022/11/11 21:38:51;;;;;;;14.00;10.00;;;;;;;9.97;83.88;101715.59;103232;1327;22492;-82
2022/11/11 21:41:38;;;;;;;13.30;10.10;;;;;;;9.99;83.83;101714.23;103013;1316;22483;-80
2022/11/11 21:44:23;;;;;;;12.20;8.90;;;;;;;9.97;83.62;101719.65;102930;1316;25249;-81
2022/11/11 21:51:35;;;;;;;12.00;8.70;;;;;;;9.96;83.87;101730.38;103751;1315;25211;-82
2022/11/11 21:58:51;;;;;;;12.00;9.10;;;;;;;9.95;83.79;101727.72;104022;1310;22558;-82
2022/11/11 22:02:04;;;;;;;14.10;8.30;;;;;;;9.95;83.96;101727.17;103551;1310;185353;-83
2022/11/11 22:09:11;;;;;;;15.00;10.00;;;;;;;9.98;84.05;101736.57;103974;1304;22489;-82
2022/11/11 22:12:40;;;;;;;12.90;9.30;;;;;;;9.96;83.90;101732.30;103765;1304;22483;-84
2022/11/11 22:15:25;;;;;;;13.10;10.30;;;;;;;9.97;84.01;101734.44;104443;1304;24321;-83
2022/11/11 22:18:10;;;;;;;11.90;8.60;;;;;;;10.00;84.02;101733.23;104069;1304;22723;-79
2022/11/11 22:21:06;;;;;;;13.80;9.90;;;;;;;10.00;83.96;101729.91;103882;1307;24380;-81
2022/11/11 22:23:53;;;;;;;13.70;9.60;;;;;;;10.04;83.90;101728.73;103980;1285;25223;-79
2022/11/11 22:27:05;;;;;;;14.30;9.00;;;;;;;10.04;83.95;101729.27;104031;1307;23411;-81
2022/11/11 22:34:13;;;;;;;10.40;8.40;;;;;;;10.18;84.06;101734.73;104046;1304;24028;-81
2022/11/11 22:36:58;;;;;;;12.90;9.00;;;;;;;10.22;83.92;101739.72;103403;1298;26552;-78
2022/11/11 22:48:28;;;;;;;19.00;10.00;;;;;;;10.26;83.52;101736.43;103284;1315;24576;-80
2022/11/11 22:51:44;;;;;;;12.40;8.30;;;;;;;10.25;83.63;101732.91;103693;1316;23931;-80
2022/11/11 22:54:29;;;;;;;11.60;9.00;;;;;;;10.26;83.38;101729.93;104080;1310;22436;-78
2022/11/11 22:57:15;;;;;;;13.30;8.60;;;;;;;10.24;83.21;101731.30;105338;1310;22554;-80
2022/11/11 23:00:53;;;;;;;13.60;9.90;;;;;;;10.22;83.34;101737.96;105285;1310;22486;-81
2022/11/11 23:03:42;;;;;;;17.40;10.20;;;;;;;10.25;83.42;101733.80;104388;1315;22807;-80
2022/11/11 23:06:52;;;;;;;;;;;;;;;;;;;;;
2022/11/11 23:10:09;;;;;;;17.90;11.10;;;;;;;10.14;83.20;101732.76;103168;1316;24262;-81
2022/11/11 23:12:55;;;;;;;17.80;10.60;;;;;;;10.15;83.53;101731.02;102772;1317;25955;-86
2022/11/11 23:16:32;;;;;;;15.80;10.90;;;;;;;10.19;83.62;101732.11;102568;1326;22415;-81
2022/11/11 23:28:05;;;;;;;;;;;;;;;10.18;83.50;101730.87;103176;1318;24230;-82
2022/11/11 23:30:50;;;;;;;13.90;11.10;;;;;;;10.17;83.35;101732.79;103244;1318;22604;-84
2022/11/11 23:33:39;;;;;;;17.20;12.00;;;;;;;10.12;83.34;101730.61;102690;1317;22549;-83
2022/11/11 23:36:33;;;;;;;18.30;11.40;;;;;;;10.08;83.39;101734.24;102942;1317;24024;-81